Time;durP1;ratioP1;P1;durP2;ratioP2;P2;SDS_P1;SDS_P2;PMS_P1;PMS_P2;Temp;Humidity;BMP_temperature;BMP_pressure;BME280_temperature;BME280_humidity;BME280_pressure;Samples;Min_cycle;Max_cycle;Signal;HPM_P1;HPM_P2
2021/12/18 00:01:42;;;;;;;43.38;24.73;;;;;;;;;;5027023;28;20029;-75
2021/12/18 00:04:07;;;;;;;48.08;24.48;;;;;;;;;;5023731;28;20026;-72
2021/12/18 00:06:32;;;;;;;45.95;24.08;;;;;;;;;;5025784;28;20041;-74
2021/12/18 00:08:59;;;;;;;50.38;25.67;;;;;;;;;;5020455;28;20056;-76
2021/12/18 00:11:25;;;;;;;44.88;24.50;;;;;;;;;;5027538;28;20116;-72
2021/12/18 00:13:50;;;;;;;46.13;23.23;;;;;;;;;;5024027;28;20486;-73
2021/12/18 00:16:15;;;;;;;46.95;24.52;;;;;;;;;;5022458;28;20034;-74
2021/12/18 00:18:41;;;;;;;43.33;23.38;;;;;;;;;;5021054;28;20037;-74
2021/12/18 00:21:07;;;;;;;45.28;22.55;;;;;;;;;;5028688;28;20030;-72
2021/12/18 00:23:32;;;;;;;49.80;25.13;;;;;;;;;;5021310;28;20036;-72
2021/12/18 00:25:58;;;;;;;44.70;22.20;;;;;;;;;;5022428;28;20042;-72
2021/12/18 00:28:23;;;;;;;46.67;23.33;;;;;;;;;;5021644;28;20500;-73
2021/12/18 00:30:48;;;;;;;46.80;22.85;;;;;;;;;;5028408;28;20125;-75
2021/12/18 00:33:14;;;;;;;48.25;24.02;;;;;;;;;;5026358;28;20024;-73
2021/12/18 00:35:39;;;;;;;47.47;24.83;;;;;;;;;;5026621;28;20116;-73
2021/12/18 00:38:05;;;;;;;47.53;24.15;;;;;;;;;;5025506;28;20433;-71
2021/12/18 00:40:44;;;;;;;48.83;23.77;;;;;;;;;;5026666;28;20025;-73
2021/12/18 00:46:04;;;;;;;48.08;22.27;;;;;;;;;;5005426;28;20697;-73
2021/12/18 00:48:30;;;;;;;51.25;22.63;;;;;;;;;;5005368;28;20022;-77
2021/12/18 00:50:55;;;;;;;47.75;22.70;;;;;;;;;;5002810;28;20619;-78
2021/12/18 00:53:21;;;;;;;49.20;23.08;;;;;;;;;;5005166;28;20088;-77
2021/12/18 00:55:46;;;;;;;45.95;20.95;;;;;;;;;;5006162;28;20518;-78
2021/12/18 00:58:12;;;;;;;52.47;22.60;;;;;;;;;;5004291;28;20034;-79
2021/12/18 01:00:38;;;;;;;55.20;23.27;;;;;;;;;;5005187;28;20026;-78
2021/12/18 01:03:04;;;;;;;50.30;22.10;;;;;;;;;;5013900;28;20045;-78
2021/12/18 01:05:31;;;;;;;49.83;22.98;;;;;;;;;;5005424;28;20068;-78
2021/12/18 01:07:57;;;;;;;56.83;23.15;;;;;;;;;;5005028;28;20406;-78
2021/12/18 01:12:51;;;;;;;53.50;22.45;;;;;;;;;;5009495;28;20050;-80
2021/12/18 01:15:25;;;;;;;64.75;23.92;;;;;;;;;;5009884;28;20747;-79
2021/12/18 01:23:21;;;;;;;61.97;24.85;;;;;;;;;;5024211;28;20142;-80
2021/12/18 01:25:47;;;;;;;60.45;21.92;;;;;;;;;;5030868;28;20629;-80
2021/12/18 01:28:12;;;;;;;64.78;24.52;;;;;;;;;;5030942;28;20026;-80
2021/12/18 01:30:37;;;;;;;64.28;23.90;;;;;;;;;;5020790;28;20030;-80
2021/12/18 01:33:02;;;;;;;65.60;24.77;;;;;;;;;;5034214;28;20066;-81
2021/12/18 01:35:28;;;;;;;66.07;24.48;;;;;;;;;;5026231;28;20029;-80
2021/12/18 01:37:53;;;;;;;65.38;24.67;;;;;;;;;;5023705;28;20026;-81
2021/12/18 01:40:20;;;;;;;60.95;23.50;;;;;;;;;;5027562;28;20061;-81
2021/12/18 01:43:35;;;;;;;69.68;25.75;;;;;;;;;;5031160;28;20043;-78
2021/12/18 01:46:03;;;;;;;70.38;25.77;;;;;;;;;;5030389;28;20034;-81
2021/12/18 01:51:24;;;;;;;76.40;28.08;;;;;;;;;;5023321;28;20033;-81
2021/12/18 01:53:51;;;;;;;76.97;27.88;;;;;;;;;;5027003;28;20096;-79
2021/12/18 01:56:17;;;;;;;73.18;26.33;;;;;;;;;;5024387;28;20026;-79
2021/12/18 01:58:44;;;;;;;82.15;29.25;;;;;;;;;;5023699;28;20075;-79
2021/12/18 02:01:09;;;;;;;74.63;27.63;;;;;;;;;;5026031;28;20080;-79
2021/12/18 02:03:35;;;;;;;75.00;27.48;;;;;;;;;;5030720;28;20045;-80
2021/12/18 02:06:00;;;;;;;74.60;28.95;;;;;;;;;;5027501;28;20042;-79
2021/12/18 02:08:26;;;;;;;67.10;26.77;;;;;;;;;;5025196;28;20061;-78
2021/12/18 02:10:58;;;;;;;68.05;25.77;;;;;;;;;;5028848;28;20097;-79
2021/12/18 02:21:26;;;;;;;68.25;25.73;;;;;;;;;;5025820;28;20079;-79
2021/12/18 02:23:52;;;;;;;74.43;28.63;;;;;;;;;;5028042;28;20157;-79
2021/12/18 02:26:17;;;;;;;78.60;28.17;;;;;;;;;;5024893;28;20557;-79
2021/12/18 02:28:46;;;;;;;76.47;27.23;;;;;;;;;;5028412;28;20519;-80
2021/12/18 02:31:11;;;;;;;67.88;26.73;;;;;;;;;;5029431;28;20030;-79
2021/12/18 02:33:37;;;;;;;66.30;25.65;;;;;;;;;;5028949;28;20079;-79
2021/12/18 02:36:06;;;;;;;76.85;27.50;;;;;;;;;;5029287;28;20033;-80
2021/12/18 02:38:55;;;;;;;66.57;26.45;;;;;;;;;;5020997;28;20105;-79
2021/12/18 02:43:50;;;;;;;71.30;25.90;;;;;;;;;;5025264;28;20032;-80
2021/12/18 02:46:19;;;;;;;69.72;25.63;;;;;;;;;;5029437;28;20041;-79
2021/12/18 02:48:45;;;;;;;61.75;25.27;;;;;;;;;;5038366;28;20108;-80
2021/12/18 02:51:11;;;;;;;70.18;25.73;;;;;;;;;;5028989;28;20120;-82
2021/12/18 02:53:37;;;;;;;74.95;26.75;;;;;;;;;;5026655;28;20030;-80
2021/12/18 02:56:04;;;;;;;73.07;27.42;;;;;;;;;;5026369;28;20023;-81
2021/12/18 02:58:30;;;;;;;67.93;26.42;;;;;;;;;;5027678;28;20403;-81
2021/12/18 03:00:56;;;;;;;63.17;25.15;;;;;;;;;;5028934;28;20109;-80
2021/12/18 03:03:25;;;;;;;70.75;25.98;;;;;;;;;;5028704;28;20175;-80
2021/12/18 03:06:04;;;;;;;70.22;26.42;;;;;;;;;;5023678;28;20049;-80
2021/12/18 03:08:36;;;;;;;65.00;24.67;;;;;;;;;;5026607;28;20504;-80
2021/12/18 03:24:56;;;;;;;70.80;25.23;;;;;;;;;;5024370;28;20163;-81
2021/12/18 03:27:22;;;;;;;65.95;25.48;;;;;;;;;;5027346;28;20053;-83
2021/12/18 03:29:47;;;;;;;72.78;25.55;;;;;;;;;;5029992;28;20029;-80
2021/12/18 03:32:13;;;;;;;57.20;23.13;;;;;;;;;;5021309;28;20048;-81
2021/12/18 03:34:38;;;;;;;64.80;24.27;;;;;;;;;;5023084;28;20029;-78
2021/12/18 03:37:04;;;;;;;60.00;22.15;;;;;;;;;;5028947;28;20033;-78
2021/12/18 03:39:29;;;;;;;63.55;22.77;;;;;;;;;;5026896;28;20025;-78
2021/12/18 03:41:54;;;;;;;65.28;23.70;;;;;;;;;;5023799;28;20491;-78
2021/12/18 03:44:20;;;;;;;73.88;25.90;;;;;;;;;;5025984;28;20017;-80
2021/12/18 03:46:45;;;;;;;82.57;26.45;;;;;;;;;;5020056;28;20377;-80
2021/12/18 03:49:10;;;;;;;78.93;26.20;;;;;;;;;;5027048;28;20033;-80
2021/12/18 03:51:35;;;;;;;72.15;23.50;;;;;;;;;;5031551;28;20083;-82
2021/12/18 03:54:02;;;;;;;69.78;24.55;;;;;;;;;;5029457;28;20026;-81
2021/12/18 03:56:27;;;;;;;67.57;24.17;;;;;;;;;;5017538;28;20034;-81
2021/12/18 03:58:52;;;;;;;93.78;27.35;;;;;;;;;;5022082;28;20030;-80
2021/12/18 04:01:17;;;;;;;79.22;25.50;;;;;;;;;;5027928;28;20033;-80
2021/12/18 04:03:42;;;;;;;89.88;27.38;;;;;;;;;;5028415;28;20105;-80
2021/12/18 04:06:08;;;;;;;73.80;26.33;;;;;;;;;;5018449;28;20061;-80
2021/12/18 04:08:33;;;;;;;82.65;26.85;;;;;;;;;;5025227;28;20040;-81
2021/12/18 04:10:58;;;;;;;71.72;23.60;;;;;;;;;;5027622;28;20033;-81
2021/12/18 04:13:24;;;;;;;75.53;26.25;;;;;;;;;;5023162;28;20029;-80
2021/12/18 04:15:49;;;;;;;73.45;24.92;;;;;;;;;;5026555;28;20025;-81
2021/12/18 04:18:14;;;;;;;79.55;23.80;;;;;;;;;;5027789;28;20056;-80
2021/12/18 04:20:40;;;;;;;71.35;24.90;;;;;;;;;;5027439;28;20036;-81
2021/12/18 04:23:05;;;;;;;83.68;25.17;;;;;;;;;;5028438;28;20060;-81
2021/12/18 04:25:30;;;;;;;81.55;25.70;;;;;;;;;;5028215;28;20025;-79
2021/12/18 04:27:55;;;;;;;111.50;24.55;;;;;;;;;;5023712;28;20092;-80
2021/12/18 04:30:21;;;;;;;102.00;24.58;;;;;;;;;;5025833;28;20097;-80
2021/12/18 04:32:46;;;;;;;89.78;25.95;;;;;;;;;;5026212;28;20091;-80
2021/12/18 04:35:12;;;;;;;80.07;24.75;;;;;;;;;;5025073;28;20028;-77
2021/12/18 04:37:37;;;;;;;73.57;22.70;;;;;;;;;;5027294;28;20026;-77
2021/12/18 04:40:03;;;;;;;83.43;23.13;;;;;;;;;;5016985;28;20113;-78
2021/12/18 04:42:28;;;;;;;92.07;26.02;;;;;;;;;;5017168;28;20061;-77
2021/12/18 04:44:53;;;;;;;69.03;22.55;;;;;;;;;;5031661;28;20029;-78
2021/12/18 04:47:18;;;;;;;68.95;21.15;;;;;;;;;;5029676;28;20050;-77
2021/12/18 04:49:43;;;;;;;67.90;22.80;;;;;;;;;;5027608;28;20603;-79
2021/12/18 04:52:09;;;;;;;67.15;23.65;;;;;;;;;;5033933;28;20108;-77
2021/12/18 04:54:34;;;;;;;63.42;21.67;;;;;;;;;;5031809;28;20025;-76
2021/12/18 04:56:59;;;;;;;68.72;21.10;;;;;;;;;;5031359;28;20147;-80
2021/12/18 04:59:25;;;;;;;63.15;20.90;;;;;;;;;;5024183;28;20029;-79
2021/12/18 05:01:51;;;;;;;65.10;22.58;;;;;;;;;;5031600;28;20029;-78
2021/12/18 05:04:17;;;;;;;70.82;22.73;;;;;;;;;;5032062;28;20021;-80
2021/12/18 05:06:45;;;;;;;84.22;23.55;;;;;;;;;;5031121;28;20404;-80
2021/12/18 05:09:11;;;;;;;74.43;22.27;;;;;;;;;;5024355;28;20018;-79
2021/12/18 05:11:36;;;;;;;66.57;21.20;;;;;;;;;;5025663;28;20022;-80
2021/12/18 05:14:02;;;;;;;71.50;21.80;;;;;;;;;;5028868;28;20021;-79
2021/12/18 05:16:27;;;;;;;69.07;21.02;;;;;;;;;;5031172;28;20082;-79
2021/12/18 05:18:52;;;;;;;67.28;20.65;;;;;;;;;;5027943;28;20430;-79
2021/12/18 05:21:18;;;;;;;65.47;21.42;;;;;;;;;;5024499;28;20308;-82
2021/12/18 05:23:43;;;;;;;65.55;21.77;;;;;;;;;;5027348;28;20088;-81
2021/12/18 05:26:08;;;;;;;60.78;19.90;;;;;;;;;;5031040;28;20038;-80
2021/12/18 05:28:34;;;;;;;54.00;18.23;;;;;;;;;;5030917;28;20095;-80
2021/12/18 05:30:59;;;;;;;54.20;19.17;;;;;;;;;;5029678;28;20040;-79
2021/12/18 05:33:24;;;;;;;57.70;19.58;;;;;;;;;;5024903;28;20022;-80
2021/12/18 05:35:49;;;;;;;53.97;18.85;;;;;;;;;;5018207;28;20457;-85
2021/12/18 05:38:14;;;;;;;60.38;18.63;;;;;;;;;;5025920;28;20058;-82
2021/12/18 05:40:39;;;;;;;62.63;20.15;;;;;;;;;;5025953;28;20022;-79
2021/12/18 05:43:06;;;;;;;57.65;19.95;;;;;;;;;;5026481;28;20029;-80
2021/12/18 05:45:32;;;;;;;58.65;20.50;;;;;;;;;;5018591;28;20745;-81
2021/12/18 05:47:57;;;;;;;64.03;20.60;;;;;;;;;;5030809;28;20076;-78
2021/12/18 05:50:24;;;;;;;59.72;19.40;;;;;;;;;;5025254;28;20025;-80
2021/12/18 05:52:49;;;;;;;61.08;20.05;;;;;;;;;;5030597;28;20048;-80
2021/12/18 05:55:15;;;;;;;60.40;20.27;;;;;;;;;;5029795;28;20513;-79
2021/12/18 05:57:41;;;;;;;56.33;19.60;;;;;;;;;;5027004;28;20022;-78
2021/12/18 06:00:07;;;;;;;56.08;19.38;;;;;;;;;;5032540;28;20044;-80
2021/12/18 06:02:32;;;;;;;49.58;17.55;;;;;;;;;;5025829;28;20052;-79
2021/12/18 06:04:57;;;;;;;57.15;19.02;;;;;;;;;;5029684;28;20052;-78
2021/12/18 06:07:30;;;;;;;63.88;20.65;;;;;;;;;;5030400;28;20373;-77
2021/12/18 06:09:56;;;;;;;61.50;20.23;;;;;;;;;;5026219;28;20030;-79
2021/12/18 06:12:21;;;;;;;59.22;20.90;;;;;;;;;;5028846;28;20741;-79
2021/12/18 06:14:47;;;;;;;49.50;18.25;;;;;;;;;;5026139;28;20021;-77
2021/12/18 06:17:12;;;;;;;44.30;16.80;;;;;;;;;;5026480;28;20018;-78
2021/12/18 06:19:37;;;;;;;50.63;19.38;;;;;;;;;;5022696;28;20523;-81
2021/12/18 06:22:02;;;;;;;58.47;19.67;;;;;;;;;;5023633;28;20069;-81
2021/12/18 06:24:28;;;;;;;64.05;20.92;;;;;;;;;;5017083;28;20032;-80
2021/12/18 06:26:53;;;;;;;58.80;19.77;;;;;;;;;;5025629;28;20033;-78
2021/12/18 06:29:19;;;;;;;55.60;19.38;;;;;;;;;;5026221;28;20158;-82
2021/12/18 06:31:44;;;;;;;59.10;18.25;;;;;;;;;;5019955;28;20048;-80
2021/12/18 06:34:09;;;;;;;48.10;17.40;;;;;;;;;;5025956;28;20041;-80
2021/12/18 06:36:35;;;;;;;52.55;18.92;;;;;;;;;;5023376;28;20496;-82
2021/12/18 06:39:00;;;;;;;47.60;18.15;;;;;;;;;;5020679;28;20033;-78
2021/12/18 06:41:25;;;;;;;49.83;18.10;;;;;;;;;;5019776;28;20105;-79
2021/12/18 06:43:50;;;;;;;41.50;18.08;;;;;;;;;;5014427;28;20057;-79
2021/12/18 06:46:16;;;;;;;48.97;18.20;;;;;;;;;;5023718;28;20532;-80
2021/12/18 06:48:41;;;;;;;49.78;18.88;;;;;;;;;;5021571;28;20028;-79
2021/12/18 06:51:06;;;;;;;41.70;17.80;;;;;;;;;;5023282;28;20033;-79
2021/12/18 06:53:31;;;;;;;39.15;16.40;;;;;;;;;;5017526;28;20018;-81
2021/12/18 06:55:56;;;;;;;41.38;17.52;;;;;;;;;;5016335;28;20033;-78
2021/12/18 06:58:22;;;;;;;44.35;17.67;;;;;;;;;;5023957;28;20036;-79
2021/12/18 07:00:47;;;;;;;40.67;15.80;;;;;;;;;;5026119;28;20107;-80
2021/12/18 07:03:12;;;;;;;43.03;16.35;;;;;;;;;;5020569;28;20033;-79
2021/12/18 07:05:37;;;;;;;40.00;16.92;;;;;;;;;;5020965;28;20076;-78
2021/12/18 07:08:03;;;;;;;39.72;15.85;;;;;;;;;;5026940;28;20930;-79
2021/12/18 07:10:30;;;;;;;41.80;16.70;;;;;;;;;;5024326;28;20060;-80
2021/12/18 07:12:55;;;;;;;37.97;15.48;;;;;;;;;;5027973;28;20025;-79
2021/12/18 07:15:20;;;;;;;31.48;13.48;;;;;;;;;;5029671;28;20132;-82
2021/12/18 07:17:45;;;;;;;35.03;14.93;;;;;;;;;;5030022;28;20035;-83
2021/12/18 07:20:11;;;;;;;36.28;14.50;;;;;;;;;;5021671;28;20060;-82
2021/12/18 07:22:36;;;;;;;35.25;14.40;;;;;;;;;;5030843;28;20092;-82
2021/12/18 07:25:02;;;;;;;33.15;14.85;;;;;;;;;;5029747;28;20045;-82
2021/12/18 07:27:27;;;;;;;32.00;14.15;;;;;;;;;;5025773;28;20033;-81
2021/12/18 07:29:52;;;;;;;32.50;14.00;;;;;;;;;;5022268;28;20425;-82
2021/12/18 07:32:18;;;;;;;30.95;13.65;;;;;;;;;;5028786;28;20033;-82
2021/12/18 07:34:43;;;;;;;28.70;13.13;;;;;;;;;;5028272;28;20021;-81
2021/12/18 07:37:08;;;;;;;33.08;14.38;;;;;;;;;;5028511;28;20045;-81
2021/12/18 07:39:33;;;;;;;35.03;13.70;;;;;;;;;;5021631;28;20476;-82
2021/12/18 07:41:59;;;;;;;33.17;13.77;;;;;;;;;;5016203;28;20029;-81
2021/12/18 07:44:24;;;;;;;31.85;13.93;;;;;;;;;;5029939;28;20021;-80
2021/12/18 07:46:49;;;;;;;34.30;14.48;;;;;;;;;;5031485;28;20033;-82
2021/12/18 07:49:14;;;;;;;33.88;13.85;;;;;;;;;;5025558;28;20401;-82
2021/12/18 07:51:39;;;;;;;38.95;14.93;;;;;;;;;;5031286;28;20329;-81
2021/12/18 07:54:05;;;;;;;37.60;15.40;;;;;;;;;;5029996;28;20033;-81
2021/12/18 07:56:31;;;;;;;33.05;14.05;;;;;;;;;;5030586;28;20025;-83
2021/12/18 07:58:56;;;;;;;35.80;14.65;;;;;;;;;;5023717;28;20491;-86
2021/12/18 08:01:21;;;;;;;34.33;13.75;;;;;;;;;;5023823;28;20029;-82
2021/12/18 08:03:47;;;;;;;35.80;14.68;;;;;;;;;;5027369;28;20108;-84
2021/12/18 08:06:12;;;;;;;38.50;15.48;;;;;;;;;;5034192;28;20473;-82
2021/12/18 08:08:37;;;;;;;38.28;15.45;;;;;;;;;;5028459;28;20030;-80
2021/12/18 08:11:03;;;;;;;34.10;14.90;;;;;;;;;;5018996;28;20496;-82
2021/12/18 08:13:28;;;;;;;32.45;14.50;;;;;;;;;;5021629;28;20168;-83
2021/12/18 08:15:53;;;;;;;36.85;14.63;;;;;;;;;;5028279;28;20033;-81
2021/12/18 08:18:19;;;;;;;34.28;15.32;;;;;;;;;;5022413;28;20474;-82
2021/12/18 08:20:44;;;;;;;42.10;16.33;;;;;;;;;;5032029;28;20235;-63
2021/12/18 08:23:10;;;;;;;38.83;15.48;;;;;;;;;;5033284;28;20025;-63
2021/12/18 08:25:35;;;;;;;32.78;14.55;;;;;;;;;;5029063;28;20018;-63
2021/12/18 08:28:01;;;;;;;38.53;15.98;;;;;;;;;;5028302;28;20060;-63
2021/12/18 08:30:27;;;;;;;41.22;17.02;;;;;;;;;;5027404;28;20025;-62
2021/12/18 08:32:52;;;;;;;39.45;15.75;;;;;;;;;;5028471;28;20041;-63
2021/12/18 08:35:17;;;;;;;34.92;16.20;;;;;;;;;;5019897;28;20075;-63
2021/12/18 08:37:43;;;;;;;38.80;16.10;;;;;;;;;;5020928;28;20457;-63
2021/12/18 08:40:08;;;;;;;37.70;15.75;;;;;;;;;;5028041;28;20029;-63
2021/12/18 08:42:33;;;;;;;33.30;15.13;;;;;;;;;;5028289;28;20413;-63
2021/12/18 08:44:59;;;;;;;34.85;14.90;;;;;;;;;;5028292;28;20040;-65
2021/12/18 08:47:25;;;;;;;38.78;15.82;;;;;;;;;;5028732;28;20443;-64
2021/12/18 08:49:50;;;;;;;37.92;16.48;;;;;;;;;;5028298;28;20029;-63
2021/12/18 08:52:15;;;;;;;35.00;15.48;;;;;;;;;;5030672;28;20515;-63
2021/12/18 08:54:41;;;;;;;35.28;15.15;;;;;;;;;;5028412;28;20381;-64
2021/12/18 08:57:06;;;;;;;36.78;15.52;;;;;;;;;;5027960;28;20405;-63
2021/12/18 08:59:32;;;;;;;37.85;15.48;;;;;;;;;;5026393;28;20037;-64
2021/12/18 09:01:57;;;;;;;35.40;15.82;;;;;;;;;;5028461;28;20037;-64
2021/12/18 09:04:22;;;;;;;34.63;15.32;;;;;;;;;;5028703;28;20020;-64
2021/12/18 09:06:47;;;;;;;32.13;14.57;;;;;;;;;;5028199;28;20136;-65
2021/12/18 09:09:12;;;;;;;35.00;15.68;;;;;;;;;;5022468;28;20026;-64
2021/12/18 09:11:38;;;;;;;37.30;16.30;;;;;;;;;;5025873;28;20029;-64
2021/12/18 09:14:03;;;;;;;37.95;16.40;;;;;;;;;;5025964;28;20044;-64
2021/12/18 09:16:29;;;;;;;38.72;16.67;;;;;;;;;;5025053;28;20172;-65
2021/12/18 09:18:54;;;;;;;40.53;17.65;;;;;;;;;;5022985;28;20029;-64
2021/12/18 09:21:20;;;;;;;38.17;17.08;;;;;;;;;;5024750;28;20025;-64
2021/12/18 09:23:45;;;;;;;38.58;17.52;;;;;;;;;;5026823;28;20025;-64
2021/12/18 09:26:11;;;;;;;38.58;16.27;;;;;;;;;;5026991;28;20136;-64
2021/12/18 09:28:36;;;;;;;38.60;16.55;;;;;;;;;;5023614;28;20432;-62
2021/12/18 09:31:01;;;;;;;38.58;16.77;;;;;;;;;;5023810;28;20021;-64
2021/12/18 09:33:26;;;;;;;43.17;18.30;;;;;;;;;;5030377;28;20471;-63
2021/12/18 09:35:51;;;;;;;43.10;18.00;;;;;;;;;;5031439;28;20079;-63
2021/12/18 09:38:17;;;;;;;40.47;18.33;;;;;;;;;;5020911;28;20466;-63
2021/12/18 09:40:42;;;;;;;44.35;18.45;;;;;;;;;;5021987;28;20025;-62
2021/12/18 09:43:07;;;;;;;39.70;18.45;;;;;;;;;;5029437;28;20035;-63
2021/12/18 09:45:32;;;;;;;42.42;18.85;;;;;;;;;;5025011;28;20033;-63
2021/12/18 09:47:58;;;;;;;44.88;18.98;;;;;;;;;;5031060;28;20041;-63
2021/12/18 09:50:24;;;;;;;45.25;18.90;;;;;;;;;;5026718;28;20522;-62
2021/12/18 09:52:50;;;;;;;44.40;18.15;;;;;;;;;;5031077;28;20029;-65
2021/12/18 09:55:15;;;;;;;44.60;19.45;;;;;;;;;;5030784;28;20022;-63
2021/12/18 09:57:41;;;;;;;42.65;18.20;;;;;;;;;;5030774;28;20034;-63
2021/12/18 10:00:13;;;;;;;46.63;19.17;;;;;;;;;;5030041;28;20483;-63
2021/12/18 10:02:39;;;;;;;46.47;19.58;;;;;;;;;;5028985;28;20163;-62
2021/12/18 10:05:05;;;;;;;43.40;17.98;;;;;;;;;;5030576;28;20100;-65
2021/12/18 10:07:30;;;;;;;46.80;19.15;;;;;;;;;;5024008;28;20075;-63
2021/12/18 10:09:57;;;;;;;42.75;18.60;;;;;;;;;;5030756;28;20014;-63
2021/12/18 10:12:32;;;;;;;42.45;18.33;;;;;;;;;;5029966;28;20074;-63
2021/12/18 10:14:58;;;;;;;43.58;18.60;;;;;;;;;;5027913;28;20079;-63
2021/12/18 10:17:25;;;;;;;47.10;20.25;;;;;;;;;;5028553;28;20076;-62
2021/12/18 10:19:52;;;;;;;47.03;20.10;;;;;;;;;;5030745;28;20014;-63
2021/12/18 10:22:17;;;;;;;48.47;19.63;;;;;;;;;;5030735;28;20071;-63
2021/12/18 10:24:44;;;;;;;44.58;19.05;;;;;;;;;;5030570;28;20096;-63
2021/12/18 10:27:23;;;;;;;43.95;19.05;;;;;;;;;;5030426;28;20386;-63
2021/12/18 10:29:49;;;;;;;41.55;17.75;;;;;;;;;;5030314;28;20018;-64
2021/12/18 10:32:16;;;;;;;48.03;20.10;;;;;;;;;;5026071;28;20362;-62
2021/12/18 10:34:42;;;;;;;44.42;18.45;;;;;;;;;;5027378;28;20021;-63
2021/12/18 10:37:08;;;;;;;44.53;17.88;;;;;;;;;;5029164;28;20067;-63
2021/12/18 10:39:35;;;;;;;45.92;18.17;;;;;;;;;;5030031;28;20064;-62
2021/12/18 10:42:18;;;;;;;40.63;17.98;;;;;;;;;;5027420;28;20022;-63
2021/12/18 10:44:55;;;;;;;37.83;17.67;;;;;;;;;;5029914;28;20071;-63
2021/12/18 10:47:21;;;;;;;41.30;18.00;;;;;;;;;;5023225;28;20029;-63
2021/12/18 10:49:46;;;;;;;40.95;17.48;;;;;;;;;;5029416;28;20656;-62
2021/12/18 10:52:11;;;;;;;40.90;18.25;;;;;;;;;;5035385;28;20025;-63
2021/12/18 10:54:37;;;;;;;38.95;17.02;;;;;;;;;;5029272;28;20048;-63
2021/12/18 10:57:02;;;;;;;42.20;17.67;;;;;;;;;;5028718;28;20096;-63
2021/12/18 10:59:32;;;;;;;34.33;15.95;;;;;;;;;;5028201;28;20076;-63
2021/12/18 11:01:58;;;;;;;35.88;16.15;;;;;;;;;;5027801;28;20413;-62
2021/12/18 11:04:23;;;;;;;35.72;16.83;;;;;;;;;;5031490;28;20091;-63
2021/12/18 11:06:49;;;;;;;36.63;17.33;;;;;;;;;;5025717;28;20412;-62
2021/12/18 11:09:17;;;;;;;36.05;16.05;;;;;;;;;;5027815;28;20033;-64
2021/12/18 11:14:12;;;;;;;42.15;17.70;;;;;;;;;;5029207;28;20037;-63
2021/12/18 11:16:38;;;;;;;43.42;18.23;;;;;;;;;;5028742;28;20036;-63
2021/12/18 11:19:05;;;;;;;40.72;17.30;;;;;;;;;;5027577;28;20186;-63
2021/12/18 11:21:32;;;;;;;38.20;17.15;;;;;;;;;;5030016;28;20018;-62
2021/12/18 11:24:04;;;;;;;37.50;17.48;;;;;;;;;;5024996;28;20035;-63
2021/12/18 11:26:36;;;;;;;36.63;15.77;;;;;;;;;;5025581;28;20146;-63
2021/12/18 11:29:02;;;;;;;37.97;16.38;;;;;;;;;;5023968;28;20605;-63
2021/12/18 11:31:28;;;;;;;36.55;16.45;;;;;;;;;;5025697;28;20028;-62
2021/12/18 11:33:54;;;;;;;40.15;16.15;;;;;;;;;;5021105;28;20026;-63
2021/12/18 11:36:19;;;;;;;35.35;15.93;;;;;;;;;;5027074;28;20040;-63
2021/12/18 11:38:45;;;;;;;35.35;15.95;;;;;;;;;;5028488;28;20017;-63
2021/12/18 11:41:18;;;;;;;35.67;16.75;;;;;;;;;;5025778;28;20166;-66
2021/12/18 11:43:46;;;;;;;37.40;16.75;;;;;;;;;;5028958;28;20060;-63
2021/12/18 11:46:31;;;;;;;34.88;15.73;;;;;;;;;;5027376;28;20025;-64
2021/12/18 11:49:01;;;;;;;33.80;15.73;;;;;;;;;;5027833;28;20064;-63
2021/12/18 11:51:27;;;;;;;34.58;15.25;;;;;;;;;;5021152;28;20025;-64
2021/12/18 11:53:52;;;;;;;35.72;16.45;;;;;;;;;;5026478;28;20040;-63
2021/12/18 11:56:18;;;;;;;32.70;15.35;;;;;;;;;;5023902;28;20038;-64
2021/12/18 11:58:45;;;;;;;38.65;16.63;;;;;;;;;;5023979;28;20056;-63
2021/12/18 12:01:15;;;;;;;32.78;15.40;;;;;;;;;;5027342;28;20104;-63
2021/12/18 12:03:45;;;;;;;33.20;15.30;;;;;;;;;;5020487;28;20040;-64
2021/12/18 12:06:25;;;;;;;36.72;17.60;;;;;;;;;;5021305;28;20414;-63
2021/12/18 12:09:09;;;;;;;40.25;18.15;;;;;;;;;;5024025;28;20022;-62
2021/12/18 12:11:48;;;;;;;33.15;15.32;;;;;;;;;;5023222;28;20025;-63
2021/12/18 12:14:13;;;;;;;33.45;14.88;;;;;;;;;;5026857;28;20603;-64
2021/12/18 12:16:44;;;;;;;28.05;13.38;;;;;;;;;;5021469;28;20034;-64
2021/12/18 12:19:11;;;;;;;34.13;15.57;;;;;;;;;;5021072;28;20041;-63
2021/12/18 12:21:37;;;;;;;39.30;18.77;;;;;;;;;;5025303;28;20397;-66
2021/12/18 12:24:02;;;;;;;34.15;15.25;;;;;;;;;;5016794;28;20041;-63
2021/12/18 12:26:27;;;;;;;34.65;14.70;;;;;;;;;;5027192;28;20041;-62
2021/12/18 12:28:53;;;;;;;28.33;13.77;;;;;;;;;;5024540;28;20029;-62
2021/12/18 12:31:19;;;;;;;33.75;14.13;;;;;;;;;;5015566;28;20053;-63
2021/12/18 12:33:45;;;;;;;30.48;14.77;;;;;;;;;;5026580;28;20477;-63
2021/12/18 12:36:14;;;;;;;31.40;14.52;;;;;;;;;;5020223;28;20021;-64
2021/12/18 12:38:41;;;;;;;27.83;12.77;;;;;;;;;;5027348;28;20636;-64
2021/12/18 12:41:26;;;;;;;33.55;14.88;;;;;;;;;;5021923;28;20041;-64
2021/12/18 12:43:51;;;;;;;33.85;14.55;;;;;;;;;;5018332;28;20508;-62
2021/12/18 12:46:18;;;;;;;29.40;14.02;;;;;;;;;;5023144;28;20030;-63
2021/12/18 12:48:59;;;;;;;29.85;14.10;;;;;;;;;;5024439;28;20029;-63
2021/12/18 12:51:24;;;;;;;36.97;15.48;;;;;;;;;;5027409;28;20029;-62
2021/12/18 12:53:51;;;;;;;34.30;15.25;;;;;;;;;;5027296;28;20036;-63
2021/12/18 12:56:18;;;;;;;27.92;13.30;;;;;;;;;;5026850;28;20056;-63
2021/12/18 12:58:44;;;;;;;33.38;14.77;;;;;;;;;;5020820;28;20493;-63
2021/12/18 13:01:09;;;;;;;32.28;13.88;;;;;;;;;;5027710;28;20029;-62
2021/12/18 13:03:43;;;;;;;30.80;14.82;;;;;;;;;;5024950;28;20514;-63
2021/12/18 13:06:10;;;;;;;32.95;15.05;;;;;;;;;;5022050;28;20249;-64
2021/12/18 13:08:37;;;;;;;38.00;17.85;;;;;;;;;;5020632;28;20028;-63
2021/12/18 13:11:03;;;;;;;33.20;14.23;;;;;;;;;;5029591;28;20037;-63
2021/12/18 13:13:30;;;;;;;32.97;15.57;;;;;;;;;;5021266;28;20489;-63
2021/12/18 13:15:57;;;;;;;33.45;14.95;;;;;;;;;;5028692;28;20872;-63
2021/12/18 13:18:25;;;;;;;31.45;14.40;;;;;;;;;;5025852;28;20424;-63
2021/12/18 13:20:58;;;;;;;32.40;15.00;;;;;;;;;;5030659;28;20506;-62
2021/12/18 13:23:44;;;;;;;35.20;14.82;;;;;;;;;;5018738;28;20026;-63
2021/12/18 13:26:11;;;;;;;38.75;16.23;;;;;;;;;;5027976;28;20025;-62
2021/12/18 13:28:53;;;;;;;33.50;14.82;;;;;;;;;;5025310;28;20039;-63
2021/12/18 13:31:22;;;;;;;41.10;16.55;;;;;;;;;;5031196;28;20545;-63
2021/12/18 13:33:52;;;;;;;36.00;15.82;;;;;;;;;;5025672;28;20029;-64
2021/12/18 13:36:17;;;;;;;36.53;15.88;;;;;;;;;;5024065;28;20029;-63
2021/12/18 13:38:45;;;;;;;36.15;15.52;;;;;;;;;;5023913;28;20032;-63
2021/12/18 13:41:13;;;;;;;40.92;16.58;;;;;;;;;;5017574;28;20104;-63
2021/12/18 13:43:39;;;;;;;39.03;16.83;;;;;;;;;;5025716;28;20634;-62
2021/12/18 13:46:07;;;;;;;40.22;16.70;;;;;;;;;;5023818;28;20025;-64
2021/12/18 13:48:40;;;;;;;41.75;17.25;;;;;;;;;;5025990;28;20094;-62
2021/12/18 13:51:09;;;;;;;35.67;15.13;;;;;;;;;;5022644;28;20473;-63
2021/12/18 13:53:47;;;;;;;36.80;15.93;;;;;;;;;;5024501;28;20381;-64
2021/12/18 13:56:12;;;;;;;35.58;16.38;;;;;;;;;;5024123;28;20033;-63
2021/12/18 13:58:37;;;;;;;37.80;16.73;;;;;;;;;;5025174;28;20022;-63
2021/12/18 14:01:07;;;;;;;40.78;17.23;;;;;;;;;;5028812;28;20049;-64
2021/12/18 14:03:48;;;;;;;39.78;16.05;;;;;;;;;;5027947;28;20381;-62
2021/12/18 14:06:13;;;;;;;38.97;16.48;;;;;;;;;;5026368;28;20152;-63
2021/12/18 14:08:39;;;;;;;41.85;17.77;;;;;;;;;;5021257;28;20148;-63
2021/12/18 14:11:06;;;;;;;41.67;17.05;;;;;;;;;;5022458;28;20107;-63
2021/12/18 14:13:41;;;;;;;43.42;17.00;;;;;;;;;;5028155;28;20139;-63
2021/12/18 14:16:07;;;;;;;46.80;17.98;;;;;;;;;;5025703;28;20552;-63
2021/12/18 14:18:36;;;;;;;39.33;16.70;;;;;;;;;;5027632;28;20026;-64
2021/12/18 14:21:02;;;;;;;39.55;16.85;;;;;;;;;;5023638;28;20029;-64
2021/12/18 14:23:29;;;;;;;41.47;17.75;;;;;;;;;;5028778;28;20092;-62
2021/12/18 14:26:13;;;;;;;41.50;16.73;;;;;;;;;;5023086;28;20025;-63
2021/12/18 14:28:38;;;;;;;41.97;18.50;;;;;;;;;;5029142;28;20092;-64
2021/12/18 14:31:21;;;;;;;41.95;18.65;;;;;;;;;;5028295;28;20052;-64
2021/12/18 14:33:53;;;;;;;37.03;16.27;;;;;;;;;;5027578;28;20105;-64
2021/12/18 14:36:37;;;;;;;42.38;17.48;;;;;;;;;;5017252;28;20056;-63
2021/12/18 14:39:02;;;;;;;44.92;18.17;;;;;;;;;;5028940;28;20497;-63
2021/12/18 14:41:27;;;;;;;40.90;17.08;;;;;;;;;;5024898;28;20033;-62
2021/12/18 14:43:59;;;;;;;40.70;18.30;;;;;;;;;;5027214;28;20031;-62
2021/12/18 14:46:24;;;;;;;37.75;17.13;;;;;;;;;;5037970;28;20024;-62
2021/12/18 14:48:49;;;;;;;40.10;17.88;;;;;;;;;;5034334;28;20125;-62
2021/12/18 14:51:23;;;;;;;38.55;17.25;;;;;;;;;;5037497;28;20464;-63
2021/12/18 14:54:01;;;;;;;38.60;17.55;;;;;;;;;;5037465;28;20032;-62
2021/12/18 14:56:26;;;;;;;39.97;17.88;;;;;;;;;;5037097;28;20078;-65